createdAt,value
2022-12-16T00:00:47.549Z,27.50
2022-12-16T00:03:20.176Z,26.80
2022-12-16T00:05:53.997Z,22.70
2022-12-16T00:08:27.808Z,28.60
2022-12-16T00:11:03.208Z,27.60
2022-12-16T00:13:37.188Z,30.80
2022-12-16T00:16:12.786Z,29.00
2022-12-16T00:18:45.601Z,32.70
2022-12-16T00:21:19.450Z,34.80
2022-12-16T00:26:23.000Z,32.80
2022-12-16T00:28:55.737Z,31.80
2022-12-16T00:31:29.564Z,32.60
2022-12-16T00:34:02.451Z,33.80
2022-12-16T00:36:35.142Z,33.30
2022-12-16T00:39:08.267Z,32.80
2022-12-16T00:41:41.381Z,27.50
2022-12-16T00:54:16.732Z,28.50
2022-12-16T00:56:49.890Z,30.70
2022-12-16T00:59:24.562Z,31.80
2022-12-16T01:01:57.838Z,31.80
2022-12-16T01:04:31.041Z,30.50
2022-12-16T01:07:04.880Z,29.90
2022-12-16T01:09:38.330Z,30.10
2022-12-16T01:12:11.991Z,30.70
2022-12-16T01:14:44.400Z,32.50
2022-12-16T01:17:17.431Z,31.70
2022-12-16T01:19:50.370Z,30.70
2022-12-16T01:22:24.460Z,22.90
2022-12-16T01:27:28.011Z,28.00
2022-12-16T01:30:00.610Z,25.40
2022-12-16T01:32:33.802Z,29.30
2022-12-16T01:35:17.976Z,29.60
2022-12-16T01:37:57.193Z,30.50
2022-12-16T01:40:29.931Z,31.30
2022-12-16T01:43:02.470Z,29.00
2022-12-16T01:45:36.684Z,29.00
2022-12-16T01:48:21.940Z,30.00
2022-12-16T01:50:59.823Z,28.80
2022-12-16T01:53:34.276Z,30.60
2022-12-16T01:56:07.739Z,28.40
2022-12-16T01:58:43.210Z,27.50
2022-12-16T02:01:16.733Z,26.70
2022-12-16T02:03:51.051Z,25.90
2022-12-16T02:06:27.471Z,28.50
2022-12-16T02:09:03.432Z,25.60
2022-12-16T02:12:10.651Z,24.90
2022-12-16T02:15:06.332Z,24.80
2022-12-16T02:17:46.831Z,27.60
2022-12-16T02:21:01.533Z,26.30
2022-12-16T02:24:04.144Z,26.60
2022-12-16T02:27:03.160Z,27.30
2022-12-16T02:29:52.327Z,25.80
2022-12-16T02:32:34.602Z,25.50
2022-12-16T02:35:17.945Z,25.90
2022-12-16T02:37:58.430Z,28.10
2022-12-16T02:40:35.479Z,26.20
2022-12-16T02:43:15.520Z,26.80
2022-12-16T02:45:50.210Z,25.70
2022-12-16T02:48:24.763Z,26.40
2022-12-16T02:50:58.209Z,23.70
2022-12-16T02:53:34.538Z,25.60
2022-12-16T02:56:20.624Z,28.40
2022-12-16T02:59:06.231Z,27.70
2022-12-16T03:01:46.761Z,25.80
2022-12-16T03:04:24.720Z,27.40
2022-12-16T03:07:00.655Z,26.10
2022-12-16T03:09:39.194Z,28.00
2022-12-16T03:12:17.064Z,25.20
2022-12-16T03:14:54.592Z,26.60
2022-12-16T03:17:29.795Z,26.90
2022-12-16T03:20:22.347Z,24.20
2022-12-16T03:23:06.246Z,26.40
2022-12-16T03:25:43.891Z,26.10
2022-12-16T03:28:30.348Z,25.30
2022-12-16T03:31:16.485Z,25.90
2022-12-16T03:33:56.551Z,25.80
2022-12-16T03:36:33.656Z,27.30
2022-12-16T03:39:10.121Z,24.30
2022-12-16T03:41:46.105Z,26.20
2022-12-16T03:44:22.764Z,23.70
2022-12-16T03:46:57.665Z,25.90
2022-12-16T03:49:31.975Z,26.50
2022-12-16T03:52:06.801Z,27.20
2022-12-16T03:54:40.661Z,26.00
2022-12-16T03:57:15.539Z,25.90
2022-12-16T03:59:49.877Z,25.50
2022-12-16T04:02:24.208Z,26.70
2022-12-16T04:04:59.073Z,26.50
2022-12-16T04:07:35.242Z,27.40
2022-12-16T04:10:10.640Z,26.10
2022-12-16T04:13:14.322Z,25.90
2022-12-16T04:16:05.762Z,24.40
2022-12-16T04:18:58.287Z,26.70
2022-12-16T04:21:49.912Z,24.70
2022-12-16T04:24:34.514Z,25.40
2022-12-16T04:27:25.388Z,25.50
2022-12-16T04:30:18.457Z,25.20
2022-12-16T04:33:21.293Z,24.90
2022-12-16T04:36:12.431Z,25.20
2022-12-16T04:39:03.205Z,24.70
2022-12-16T04:41:56.113Z,25.40
2022-12-16T04:44:47.576Z,24.60
2022-12-16T04:47:39.081Z,24.40
2022-12-16T04:50:30.721Z,22.20
2022-12-16T04:53:22.291Z,23.60
2022-12-16T04:56:13.174Z,23.60
2022-12-16T04:59:04.909Z,23.00
2022-12-16T05:01:56.275Z,19.80
2022-12-16T05:04:47.210Z,22.40
2022-12-16T05:07:38.847Z,20.90
2022-12-16T05:10:32.075Z,21.80
2022-12-16T05:13:22.745Z,20.70
2022-12-16T05:16:13.479Z,21.90
2022-12-16T05:19:04.202Z,22.30
2022-12-16T05:21:55.372Z,21.90
2022-12-16T05:24:51.241Z,21.60
2022-12-16T05:27:43.208Z,22.20
2022-12-16T05:30:41.560Z,23.10
2022-12-16T05:33:36.280Z,22.80
2022-12-16T05:36:27.916Z,23.50
2022-12-16T05:39:28.251Z,24.20
2022-12-16T05:42:19.209Z,22.70
2022-12-16T05:45:11.386Z,24.90
2022-12-16T05:48:02.990Z,24.90
2022-12-16T05:50:55.303Z,23.90
2022-12-16T05:54:01.186Z,24.70
2022-12-16T05:56:52.366Z,24.00
2022-12-16T05:59:44.801Z,23.60
2022-12-16T06:02:35.891Z,22.10
2022-12-16T06:05:27.475Z,23.30
2022-12-16T06:08:21.377Z,20.90
2022-12-16T06:11:14.656Z,21.70
2022-12-16T06:14:08.959Z,24.60
2022-12-16T06:17:08.711Z,25.80
2022-12-16T06:19:56.816Z,23.00
2022-12-16T06:22:49.341Z,22.10
2022-12-16T06:25:40.523Z,22.20
2022-12-16T06:28:31.891Z,22.60
2022-12-16T06:31:25.472Z,21.60
2022-12-16T06:34:29.341Z,22.70
2022-12-16T06:37:22.728Z,22.30
2022-12-16T06:40:16.174Z,24.40
2022-12-16T06:43:07.687Z,21.80
2022-12-16T06:45:58.972Z,23.80
2022-12-16T06:48:50.293Z,22.10
2022-12-16T06:51:41.448Z,23.90
2022-12-16T06:54:33.757Z,22.10
2022-12-16T06:57:24.696Z,24.10
2022-12-16T07:00:16.514Z,24.50
2022-12-16T07:03:10.082Z,24.50
2022-12-16T07:06:02.368Z,24.60
2022-12-16T07:08:53.451Z,21.90
2022-12-16T07:11:44.555Z,23.20
2022-12-16T07:14:43.676Z,22.70
2022-12-16T07:17:36.013Z,22.70
2022-12-16T07:20:29.997Z,22.40
2022-12-16T07:26:10.862Z,20.20
2022-12-16T07:29:02.408Z,21.20
2022-12-16T07:31:53.583Z,21.80
2022-12-16T07:34:50.010Z,21.80
2022-12-16T07:37:41.889Z,21.70
2022-12-16T07:40:33.968Z,23.10
2022-12-16T07:43:25.466Z,21.80
2022-12-16T07:46:17.345Z,22.70
2022-12-16T07:49:11.488Z,22.30
2022-12-16T07:54:52.513Z,22.10
2022-12-16T07:57:44.870Z,20.60
2022-12-16T08:00:40.646Z,22.50
2022-12-16T08:03:32.156Z,20.90
2022-12-16T08:06:23.717Z,22.90
2022-12-16T08:09:15.033Z,20.70
2022-12-16T08:12:06.833Z,22.00
2022-12-16T08:14:55.272Z,23.60
2022-12-16T08:17:48.339Z,23.30
2022-12-16T08:20:39.615Z,24.00
2022-12-16T08:23:31.142Z,21.40
2022-12-16T08:26:23.388Z,22.80
2022-12-16T08:29:42.512Z,21.50
2022-12-16T08:32:26.088Z,22.30
2022-12-16T08:35:22.548Z,22.50
2022-12-16T08:38:16.112Z,23.60
2022-12-16T08:41:07.118Z,22.50
2022-12-16T08:43:58.314Z,21.90
2022-12-16T08:46:49.515Z,22.10
2022-12-16T08:49:40.495Z,20.60
2022-12-16T08:52:32.230Z,21.50
2022-12-16T08:55:29.675Z,18.50
2022-12-16T08:58:20.562Z,18.00
2022-12-16T09:01:12.370Z,18.90
2022-12-16T09:04:03.635Z,19.80
2022-12-16T09:06:55.219Z,21.70
2022-12-16T09:09:46.181Z,19.30
2022-12-16T09:12:37.460Z,19.80
2022-12-16T09:15:29.027Z,19.20
2022-12-16T09:18:20.120Z,20.70
2022-12-16T09:21:12.550Z,20.80
2022-12-16T09:24:03.712Z,21.30
2022-12-16T09:26:54.734Z,19.50
2022-12-16T09:29:45.897Z,20.30
2022-12-16T09:32:36.585Z,20.50
2022-12-16T09:35:28.343Z,20.80
2022-12-16T09:38:20.479Z,20.50
2022-12-16T09:41:11.403Z,21.50
2022-12-16T09:44:21.718Z,20.70
2022-12-16T09:47:31.528Z,20.20
2022-12-16T09:50:28.536Z,17.00
2022-12-16T09:53:22.997Z,19.30
2022-12-16T09:56:15.046Z,27.40
2022-12-16T09:59:11.012Z,24.40
2022-12-16T10:02:03.598Z,24.50
2022-12-16T10:04:58.836Z,25.30
2022-12-16T10:07:56.592Z,20.50
2022-12-16T10:11:00.264Z,21.30
2022-12-16T10:13:57.825Z,22.50
2022-12-16T10:17:02.351Z,22.30
2022-12-16T10:20:09.072Z,23.10
2022-12-16T10:23:09.929Z,21.80
2022-12-16T10:26:08.375Z,22.90
2022-12-16T10:29:07.278Z,21.20
2022-12-16T10:32:00.973Z,21.40
2022-12-16T10:34:58.177Z,21.90
2022-12-16T10:37:56.410Z,23.30
2022-12-16T10:40:54.342Z,23.80
2022-12-16T10:43:55.472Z,23.60
2022-12-16T10:46:52.169Z,25.50
2022-12-16T10:49:43.796Z,23.70
2022-12-16T10:52:36.417Z,23.70
2022-12-16T10:55:37.381Z,23.10
2022-12-16T10:58:43.255Z,26.60
2022-12-16T11:01:45.813Z,26.30
2022-12-16T11:04:57.950Z,25.80
2022-12-16T11:07:54.252Z,25.60
2022-12-16T11:11:02.212Z,29.00
2022-12-16T11:13:55.091Z,25.10
2022-12-16T11:16:48.091Z,28.60
2022-12-16T11:19:49.352Z,27.00
2022-12-16T11:22:41.849Z,28.30
2022-12-16T11:25:38.151Z,28.90
2022-12-16T11:28:33.827Z,27.50
2022-12-16T11:31:38.068Z,27.10
2022-12-16T11:34:42.576Z,28.20
2022-12-16T11:37:50.258Z,25.90
2022-12-16T11:40:41.610Z,27.20
2022-12-16T11:43:35.998Z,27.00
2022-12-16T11:46:33.478Z,26.60
2022-12-16T11:49:34.068Z,27.30
2022-12-16T11:52:37.268Z,26.50
2022-12-16T11:59:01.462Z,27.70
2022-12-16T12:01:57.310Z,27.30
2022-12-16T12:04:49.303Z,26.50
2022-12-16T12:07:55.548Z,26.50
2022-12-16T12:11:05.300Z,26.30
2022-12-16T12:14:17.841Z,25.70
2022-12-16T12:17:23.188Z,25.30
2022-12-16T12:20:29.348Z,26.60
2022-12-16T12:23:26.254Z,28.50
2022-12-16T12:35:05.158Z,27.70
2022-12-16T12:38:03.172Z,25.70
2022-12-16T12:41:09.994Z,27.40
2022-12-16T12:44:11.459Z,29.40
2022-12-16T12:47:12.063Z,29.10
2022-12-16T12:50:10.053Z,27.30
2022-12-16T12:53:24.132Z,28.60
2022-12-16T12:56:24.467Z,27.20
2022-12-16T12:59:21.486Z,32.50
2022-12-16T13:02:15.758Z,29.90
2022-12-16T13:05:10.782Z,29.50
2022-12-16T13:08:02.770Z,33.80
2022-12-16T13:23:53.240Z,39.10
2022-12-16T13:26:45.192Z,34.10
2022-12-16T13:29:39.029Z,35.30
2022-12-16T13:32:41.834Z,33.40
2022-12-16T13:35:41.219Z,33.70
2022-12-16T13:38:40.569Z,33.00
2022-12-16T13:42:08.963Z,31.90
2022-12-16T13:45:18.499Z,32.70
2022-12-16T13:48:23.293Z,34.10
2022-12-16T13:51:18.897Z,33.20
2022-12-16T13:54:12.686Z,31.60
2022-12-16T13:57:07.425Z,32.10
2022-12-16T13:59:59.823Z,33.20
2022-12-16T14:02:55.073Z,31.30
2022-12-16T14:05:49.964Z,34.90
2022-12-16T14:08:42.269Z,31.70
2022-12-16T14:11:40.024Z,33.50
2022-12-16T14:14:35.484Z,32.10
2022-12-16T14:17:29.814Z,31.90
2022-12-16T14:20:25.602Z,32.20
2022-12-16T14:23:54.785Z,36.10
2022-12-16T14:26:34.011Z,35.40
2022-12-16T14:29:35.296Z,32.80
2022-12-16T14:32:39.285Z,33.80
2022-12-16T14:35:33.681Z,34.10
2022-12-16T14:38:40.550Z,34.60
2022-12-16T14:41:34.034Z,33.70
2022-12-16T14:44:34.683Z,34.90
2022-12-16T14:47:23.787Z,35.20
2022-12-16T14:50:13.543Z,35.60
2022-12-16T14:53:03.274Z,34.60
2022-12-16T14:56:15.984Z,35.50
2022-12-16T14:59:21.092Z,37.70
2022-12-16T15:02:11.561Z,36.80
2022-12-16T15:05:09.929Z,37.80
2022-12-16T15:08:08.446Z,49.00
2022-12-16T15:10:58.925Z,40.60
2022-12-16T15:13:48.579Z,38.90
2022-12-16T15:16:45.600Z,39.10
2022-12-16T15:19:36.460Z,37.40
2022-12-16T15:22:31.253Z,38.30
2022-12-16T15:25:20.865Z,38.50
2022-12-16T15:28:17.194Z,38.60
2022-12-16T15:34:51.428Z,40.70
2022-12-16T18:07:15.875Z,40.90
2022-12-16T18:10:05.906Z,42.80
2022-12-16T18:12:56.530Z,38.30
2022-12-16T18:15:46.150Z,34.40
2022-12-16T18:18:37.067Z,37.60
2022-12-16T18:21:33.557Z,41.30
2022-12-16T18:24:28.837Z,39.50
2022-12-16T18:27:19.697Z,37.10
2022-12-16T18:30:13.760Z,39.50
2022-12-16T18:33:04.880Z,42.60
2022-12-16T18:35:58.678Z,39.30
2022-12-16T18:38:51.218Z,38.30
2022-12-16T18:41:53.397Z,37.70
2022-12-16T18:44:48.368Z,35.80
2022-12-16T18:47:39.197Z,35.70
2022-12-16T18:50:32.837Z,36.30
2022-12-16T18:53:27.342Z,38.20
2022-12-16T18:56:26.080Z,33.60
2022-12-16T18:59:18.281Z,35.00
2022-12-16T19:02:08.941Z,36.10
2022-12-16T19:04:59.459Z,35.70
2022-12-16T19:07:49.548Z,37.00
2022-12-16T19:10:39.529Z,35.90
2022-12-16T19:13:33.170Z,33.40
2022-12-16T19:16:21.438Z,35.50
2022-12-16T19:19:15.064Z,33.40
2022-12-16T19:22:09.607Z,33.30
2022-12-16T19:25:00.989Z,33.20
2022-12-16T19:27:59.886Z,35.60
2022-12-16T19:34:12.679Z,34.10
2022-12-16T19:37:09.845Z,34.10
2022-12-16T19:40:08.259Z,35.10
2022-12-16T19:43:03.017Z,38.30
2022-12-16T19:46:02.573Z,35.60
2022-12-16T19:49:08.199Z,32.60
2022-12-16T19:52:07.241Z,33.90
2022-12-16T19:55:17.176Z,33.60
2022-12-16T19:58:20.371Z,35.70
2022-12-16T20:01:14.572Z,36.80
2022-12-16T20:06:58.630Z,33.50
2022-12-16T20:09:49.118Z,41.60
2022-12-16T20:12:39.288Z,35.70
2022-12-16T20:15:38.542Z,34.70
2022-12-16T20:18:28.524Z,33.60
2022-12-16T20:21:22.800Z,34.60
2022-12-16T20:24:17.788Z,36.20
2022-12-16T20:27:06.457Z,40.30
2022-12-16T20:29:56.652Z,36.90
2022-12-16T20:32:48.479Z,36.40
2022-12-16T20:35:42.557Z,33.50
2022-12-16T20:38:33.251Z,36.50
2022-12-16T20:41:24.532Z,36.60
2022-12-16T20:44:25.737Z,36.30
2022-12-16T20:47:16.082Z,41.70
2022-12-16T20:50:05.894Z,38.40
2022-12-16T20:52:56.057Z,31.90
2022-12-16T20:55:46.246Z,40.40
2022-12-16T20:58:56.225Z,39.10
2022-12-16T21:04:57.952Z,38.30
2022-12-16T21:07:48.649Z,38.40
2022-12-16T21:10:40.218Z,36.80
2022-12-16T21:13:33.837Z,34.20
2022-12-16T21:16:40.996Z,38.30
2022-12-16T21:19:33.614Z,39.80
2022-12-16T21:22:41.597Z,42.60
2022-12-16T21:25:32.004Z,40.20
2022-12-16T21:28:23.180Z,39.90
2022-12-16T21:31:12.717Z,40.80
2022-12-16T21:34:02.428Z,39.70
2022-12-16T21:36:52.484Z,43.30
2022-12-16T21:39:45.448Z,33.50
2022-12-16T21:42:38.604Z,43.00
2022-12-16T21:45:31.907Z,42.10
2022-12-16T21:48:22.808Z,37.60
2022-12-16T21:51:15.630Z,37.40
2022-12-16T21:54:09.671Z,31.70
2022-12-16T21:57:02.188Z,32.50
2022-12-16T21:59:51.753Z,38.50
2022-12-16T22:02:41.823Z,40.20
2022-12-16T22:05:34.805Z,40.70
2022-12-16T22:08:28.739Z,36.80
2022-12-16T22:11:18.125Z,40.10
2022-12-16T22:14:08.469Z,42.00
2022-12-16T22:16:59.633Z,44.30
2022-12-16T22:19:50.498Z,44.90
2022-12-16T22:22:41.488Z,39.60
2022-12-16T22:25:31.843Z,41.00
2022-12-16T22:28:21.265Z,43.10
2022-12-16T22:31:16.347Z,45.00
2022-12-16T22:34:12.479Z,42.90
2022-12-16T22:37:02.197Z,39.60
2022-12-16T22:39:53.317Z,42.70
2022-12-16T22:42:46.107Z,39.70
2022-12-16T22:45:35.707Z,43.20
2022-12-16T22:48:25.669Z,44.20
2022-12-16T22:51:15.597Z,41.30
2022-12-16T22:54:07.209Z,43.00
2022-12-16T22:56:58.973Z,43.80
2022-12-16T22:59:48.978Z,40.00
2022-12-16T23:02:41.398Z,41.00
2022-12-16T23:05:30.887Z,38.90
2022-12-16T23:08:20.647Z,38.00
2022-12-16T23:11:15.788Z,42.50
2022-12-16T23:14:06.556Z,40.20
2022-12-16T23:16:56.526Z,39.40
2022-12-16T23:19:46.277Z,38.70
2022-12-16T23:22:35.937Z,38.70
2022-12-16T23:25:26.708Z,40.10
2022-12-16T23:28:17.998Z,39.70
2022-12-16T23:31:14.605Z,41.60
2022-12-16T23:34:04.541Z,41.60
2022-12-16T23:36:54.407Z,39.90
2022-12-16T23:39:46.128Z,39.50
2022-12-16T23:42:37.099Z,40.40
2022-12-16T23:45:28.609Z,38.80
2022-12-16T23:48:26.346Z,38.10
2022-12-16T23:51:15.217Z,42.30
2022-12-16T23:54:05.748Z,40.50
2022-12-16T23:56:56.405Z,41.00
2022-12-16T23:59:47.872Z,40.50
